sim
Sign-in with your pilot id or email,
or register
Callsign
Passwort

Schedule Details

Flight Number: RYR7778 (4)
Departure: Thessaloniki International Airport (LGTS) at 11:05
Arrival: Chania International Airport (LGSA) at 12:25
Route: Ryanair Passenger Schedule. Enter filed route here before submitting Pirep.

Weather Information
Getting current METAR information for LGTS 192150Z 03005KT 9999 FEW020 13/09 Q1023 NOSIG
Getting current METAR information for LGSA 192150Z 00000KT 9999 FEW025 10/08 Q1023

Schedule Frequency

Route Map